| time (UTC) | temp F | wind direction | speed MPH | gust MPH | rain 1hr in | rain 24hr in | rain mn in | humidity % | barometer mb |
| 20260507024525 | 49 | 136 | 0.0 | 0.0 | 0.00 | 0.01 | 0.01 | 90 | 705.4 |
| 20260507023023 | 49 | 136 | 0.0 | 0.0 | 0.00 | 0.01 | 0.01 | 90 | 705.0 |
| 20260507021520 | 49 | 136 | 0.0 | 0.0 | 0.00 | 0.01 | 0.01 | 90 | 704.7 |
| 20260507020023 | 49 | 136 | 0.0 | 0.0 | 0.00 | 0.01 | 0.01 | 90 | 704.4 |
| 20260507014522 | 50 | 148 | 0.0 | 0.0 | 0.00 | 0.01 | 0.01 | 90 | 703.9 |
| 20260507013020 | 50 | 144 | 0.0 | 0.0 | 0.00 | 0.01 | 0.01 | 90 | 703.8 |
| 20260507011529 | 50 | 144 | 0.0 | 0.0 | 0.00 | 0.01 | 0.01 | 90 | 703.5 |
| 20260507010020 | 50 | 193 | 0.0 | 5.0 | 0.00 | 0.01 | 0.01 | 89 | 703.4 |
| 20260507004518 | 50 | 211 | 0.0 | 0.0 | 0.00 | 0.01 | 0.01 | 89 | 703.1 |
| 20260507003017 | 51 | 150 | 0.0 | 0.0 | 0.00 | 0.01 | 0.01 | 89 | 702.9 |
| 20260507001520 | 51 | 167 | 0.0 | 0.0 | 0.00 | 0.01 | 0.01 | 88 | 702.5 |
| 20260507000016 | 51 | 147 | 0.0 | 0.0 | 0.00 | 0.01 | 0.01 | 87 | 702.1 |
| 20260506234516 | 52 | 148 | 0.0 | 0.0 | 0.00 | 0.01 | 0.01 | 87 | 701.8 |
| 20260506233015 | 53 | 149 | 0.0 | 1.0 | 0.00 | 0.01 | 0.01 | 86 | 701.9 |
| 20260506231515 | 53 | 126 | 0.0 | 0.0 | 0.00 | 0.01 | 0.01 | 84 | 701.8 |
| 20260506230014 | 54 | 139 | 0.0 | 2.0 | 0.00 | 0.01 | 0.01 | 82 | 701.4 |
| 20260506224514 | 54 | 142 | 0.0 | 0.0 | 0.00 | 0.01 | 0.01 | 82 | 701.3 |
| 20260506223017 | 55 | 128 | 0.0 | 1.0 | 0.00 | 0.01 | 0.01 | 82 | 701.2 |
| 20260506221512 | 55 | 136 | 0.0 | 1.0 | 0.00 | 0.01 | 0.01 | 82 | 701.0 |
| 20260506220012 | 55 | 140 | 0.0 | 1.0 | 0.00 | 0.01 | 0.01 | 83 | 700.8 |
| 20260506214512 | 55 | 140 | 0.0 | 10.0 | 0.00 | 0.01 | 0.01 | 83 | 700.4 |
| 20260506213010 | 55 | 130 | 0.0 | 3.0 | 0.00 | 0.01 | 0.01 | 84 | 700.4 |
| 20260506211517 | 56 | 148 | 0.0 | 7.0 | 0.01 | 0.01 | 0.01 | 83 | 700.4 |
| 20260506210015 | 56 | 136 | 0.0 | 1.0 | 0.01 | 0.01 | 0.01 | 83 | 700.3 |
| 20260506204510 | 55 | 117 | 0.0 | 2.0 | 0.01 | 0.01 | 0.01 | 85 | 700.4 |
| 20260506203008 | 56 | 132 | 0.0 | 5.0 | 0.01 | 0.01 | 0.01 | 84 | 700.2 |
| 20260506201509 | 60 | 81 | 0.0 | 10.0 | 0.00 | 0.00 | 0.00 | 76 | 700.2 |
| 20260506200006 | 61 | 80 | 1.0 | 12.0 | 0.00 | 0.00 | 0.00 | 74 | 700.3 |
| 20260506194506 | 62 | 132 | 0.0 | 12.0 | 0.00 | 0.00 | 0.00 | 73 | 700.3 |
| 20260506193004 | 64 | 105 | 0.0 | 10.0 | 0.00 | 0.00 | 0.00 | 69 | 700.2 |
| 20260506191502 | 65 | 108 | 1.0 | 13.0 | 0.00 | 0.00 | 0.00 | 68 | 700.5 |
| 20260506184555 | 60 | 116 | 0.0 | 5.0 | 0.00 | 0.00 | 0.00 | 76 | 701.1 |
| 20260506183054 | 61 | 126 | 0.0 | 11.0 | 0.00 | 0.00 | 0.00 | 73 | 701.3 |
| 20260506181551 | 62 | 140 | 0.0 | 4.0 | 0.00 | 0.00 | 0.00 | 72 | 701.6 |
| 20260506180049 | 61 | 121 | 0.0 | 8.0 | 0.00 | 0.00 | 0.00 | 72 | 701.8 |
| 20260506174546 | 61 | 134 | 0.0 | 3.0 | 0.00 | 0.00 | 0.00 | 72 | 702.2 |
| 20260506173121 | 60 | 117 | 0.0 | 2.0 | 0.00 | 0.00 | 0.00 | 72 | 702.4 |
| 20260506171542 | 60 | 142 | 0.0 | 14.0 | 0.00 | 0.00 | 0.00 | 73 | 702.6 |
| 20260506170041 | 61 | 132 | 0.0 | 1.0 | 0.00 | 0.00 | 0.00 | 70 | 703.0 |
| 20260506164538 | 61 | 96 | 0.0 | 4.0 | 0.00 | 0.00 | 0.00 | 72 | 703.2 |
| 20260506163039 | 58 | 92 | 0.0 | 7.0 | 0.00 | 0.00 | 0.00 | 76 | 703.5 |
| 20260506161535 | 59 | 116 | 0.0 | 2.0 | 0.00 | 0.00 | 0.00 | 76 | 703.6 |
| 20260506160033 | 60 | 95 | 0.0 | 2.0 | 0.00 | 0.00 | 0.00 | 76 | 703.8 |
| 20260506154530 | 59 | 150 | 0.0 | 2.0 | 0.00 | 0.00 | 0.00 | 76 | 704.0 |
| 20260506153028 | 59 | 125 | 0.0 | 1.0 | 0.00 | 0.00 | 0.00 | 77 | 704.1 |
| 20260506151527 | 58 | 138 | 0.0 | 0.0 | 0.00 | 0.00 | 0.00 | 80 | 704.2 |
| 20260506150021 | 55 | 132 | 0.0 | 0.0 | 0.00 | 0.00 | 0.00 | 85 | 704.5 |
| 20260506144518 | 54 | 126 | 0.0 | 0.0 | 0.00 | 0.00 | 0.00 | 86 | 704.6 |
| 20260506143023 | 53 | 134 | 0.0 | 0.0 | 0.00 | 0.00 | 0.00 | 87 | 704.6 |
| 20260506141514 | 53 | 127 | 0.0 | 1.0 | 0.00 | 0.00 | 0.00 | 87 | 704.6 |
| 20260506140014 | 53 | 136 | 0.0 | 0.0 | 0.00 | 0.00 | 0.00 | 89 | 704.6 |
| 20260506134507 | 51 | 132 | 0.0 | 0.0 | 0.00 | 0.00 | 0.00 | 90 | 704.7 |
| 20260506133003 | 50 | 104 | 0.0 | 0.0 | 0.00 | 0.00 | 0.00 | 90 | 704.7 |
| 20260506131503 | 50 | 103 | 0.0 | 0.0 | 0.00 | 0.00 | 0.00 | 90 | 704.8 |
| 20260506130140 | 50 | 160 | 0.0 | 0.0 | 0.00 | 0.00 | 0.00 | 90 | 704.6 |
| 20260506124600 | 50 | 168 | 0.0 | 0.0 | 0.00 | 0.00 | 0.00 | 90 | 704.3 |
| 20260506123050 | 49 | 170 | 0.0 | 0.0 | 0.00 | 0.00 | 0.00 | 90 | 704.2 |
| 20260506121546 | 49 | 171 | 0.0 | 0.0 | 0.00 | 0.00 | 0.00 | 90 | 704.0 |
| 20260506120052 | 49 | 174 | 0.0 | 0.0 | 0.00 | 0.00 | 0.00 | 90 | 704.1 |
| 20260506114533 | 49 | 174 | 0.0 | 0.0 | 0.00 | 0.00 | 0.00 | 91 | 704.0 |
| 20260506113026 | 48 | 174 | 0.0 | 0.0 | 0.00 | 0.00 | 0.00 | 91 | 704.0 |
| 20260506111524 | 48 | 174 | 0.0 | 0.0 | 0.00 | 0.00 | 0.00 | 91 | 704.1 |
| 20260506110024 | 48 | 127 | 0.0 | 0.0 | 0.00 | 0.00 | 0.00 | 91 | 704.0 |
| 20260506104522 | 49 | 161 | 0.0 | 0.0 | 0.00 | 0.00 | 0.00 | 91 | 703.7 |
| 20260506103022 | 48 | 161 | 0.0 | 0.0 | 0.00 | 0.00 | 0.00 | 91 | 703.6 |
| 20260506101533 | 48 | 162 | 0.0 | 0.0 | 0.00 | 0.00 | 0.00 | 91 | 703.4 |
| 20260506100019 | 48 | 163 | 0.0 | 0.0 | 0.00 | 0.00 | 0.00 | 91 | 703.4 |
| 20260506094523 | 49 | 163 | 0.0 | 0.0 | 0.00 | 0.00 | 0.00 | 91 | 703.3 |
| 20260506093021 | 49 | 162 | 0.0 | 0.0 | 0.00 | 0.00 | 0.00 | 91 | 703.2 |
| 20260506091517 | 49 | 161 | 0.0 | 0.0 | 0.00 | 0.00 | 0.00 | 91 | 703.2 |
| 20260506090017 | 49 | 161 | 0.0 | 0.0 | 0.00 | 0.00 | 0.00 | 91 | 703.1 |
| 20260506084516 | 49 | 161 | 0.0 | 0.0 | 0.00 | 0.00 | 0.00 | 90 | 703.2 |
| 20260506083016 | 49 | 161 | 0.0 | 0.0 | 0.00 | 0.00 | 0.00 | 91 | 703.1 |
| 20260506081514 | 49 | 161 | 0.0 | 0.0 | 0.00 | 0.00 | 0.00 | 91 | 703.2 |
| 20260506073027 | 49 | 157 | 0.0 | 0.0 | 0.00 | 0.00 | 0.00 | 91 | 703.4 |
| 20260506071511 | 49 | 157 | 0.0 | 0.0 | 0.00 | 0.00 | 0.00 | 91 | 703.4 |
| 20260506061504 | 49 | 186 | 0.0 | 0.0 | 0.00 | 0.00 | 0.00 | 90 | 704.0 |
| 20260506044705 | 50 | 189 | 0.0 | 0.0 | 0.00 | 0.00 | 0.00 | 90 | 704.8 |
| 20260506043109 | 49 | 189 | 0.0 | 0.0 | 0.00 | 0.00 | 0.00 | 90 | 704.7 |
| 20260506041603 | 50 | 171 | 0.0 | 0.0 | 0.00 | 0.00 | 0.00 | 90 | 704.6 |
| 20260506040058 | 50 | 169 | 0.0 | 0.0 | 0.00 | 0.00 | 0.00 | 90 | 704.6 |
| 20260506034626 | 50 | 176 | 0.0 | 0.0 | 0.00 | 0.00 | 0.00 | 89 | 704.5 |
| 20260506033102 | 49 | 117 | 0.0 | 0.0 | 0.00 | 0.00 | 0.00 | 90 | 704.5 |
| 20260506031600 | 50 | 117 | 0.0 | 0.0 | 0.00 | 0.00 | 0.00 | 89 | 704.2 |
| 20260506030054 | 51 | 141 | 0.0 | 0.0 | 0.00 | 0.00 | 0.00 | 87 | 704.0 |